ADDS METAR Data INFO
IDs: Format: Raw Decoded Include TAF

Data at: 1550 UTC 24 Sep 2017

KSGR 241535Z 11008KT 4SM HZ BKN026 BKN033 30/23 A2991 RMK AO2 T03000233 $
KSGR 241527Z 10007KT 1 3/4SM HZ SCT023 BKN030 29/23 A2991 RMK AO2 T02940228 $
KSGR 241453Z 11007KT 10SM FEW020 29/24 A2990 RMK AO2 SLP126 T02940239 $
KSGR 241353Z 11007KT 10SM CLR 27/23 A2989 RMK AO2 SLP122 T02720233 $
KSGR 241313Z 10004KT 10SM CLR 26/23 A2989 RMK AO2 T02610233 $
KSGR 241253Z AUTO 11004KT 10SM 26/23 A2988 RMK AO2 SLP118 T02560233 $
KSGR 241153Z 00000KT 10SM CLR 25/23 A2987 RMK AO2 SLP115 T02500228 10256 20233 55002 $
KSGR 241053Z AUTO 09005KT 10SM CLR 25/23 A2986 RMK AO2 SLP112 T02500233 $
KSGR 240953Z AUTO 10003KT 10SM CLR 24/23 A2987 RMK AO2 SLP116 T02440228 $
KSGR 240853Z AUTO 12003KT 10SM CLR 25/23 A2988 RMK AO2 SLP117 T02500233 58001 $
KSGR 240753Z AUTO 11003KT 10SM CLR 26/23 A2988 RMK AO2 SLP119 T02560228 $
KSGR 240653Z AUTO 12003KT 10SM CLR 26/23 A2988 RMK AO2 SLP118 T02560228 $
KSGR 240553Z AUTO 11004KT 10SM CLR 26/23 A2988 RMK AO2 SLP118 T02560228 10300 20256 403390222 50000 $
KSGR 231855Z 11008KT 10SM SCT042 BKN055 33/22 A2989
KSGR 231652Z 14009KT 10SM BKN034 32/22 A2993